createdAt,value
2018-04-20T03:22:16.149Z,15.81
2018-04-20T03:23:16.132Z,15.63
2018-04-20T03:24:16.117Z,15.82
2018-04-20T03:25:16.118Z,15.72
2018-04-20T03:26:16.120Z,15.81
2018-04-20T03:27:16.103Z,15.85
2018-04-20T03:28:16.082Z,15.82
2018-04-20T03:29:16.082Z,15.68
2018-04-20T03:30:16.080Z,15.60
2018-04-20T03:31:16.099Z,15.78
2018-04-20T03:32:16.074Z,16.00
2018-04-20T03:33:16.077Z,15.82
2018-04-20T03:34:16.072Z,15.82
2018-04-20T03:35:16.069Z,16.20
2018-04-20T03:36:16.070Z,15.85
2018-04-20T03:37:16.068Z,15.59
2018-04-20T03:38:16.067Z,15.59
2018-04-20T03:39:16.074Z,15.38
2018-04-20T03:40:16.115Z,15.75
2018-04-20T03:41:16.117Z,15.72
2018-04-20T03:42:16.128Z,15.60
2018-04-20T03:43:16.130Z,15.49
2018-04-20T03:44:16.062Z,15.61
2018-04-20T03:45:16.059Z,15.70
2018-04-20T03:46:16.074Z,15.78
2018-04-20T03:47:16.079Z,15.72
2018-04-20T03:48:16.057Z,15.61
2018-04-20T03:49:16.062Z,15.59
2018-04-20T03:50:16.056Z,15.68
2018-04-20T03:51:16.062Z,15.61
2018-04-20T03:52:16.059Z,15.41
2018-04-20T03:53:16.055Z,15.31
2018-04-20T03:54:16.081Z,15.43
2018-04-20T03:55:16.082Z,15.38
2018-04-20T03:56:16.084Z,15.52
2018-04-20T03:57:16.056Z,15.27
2018-04-20T03:58:16.059Z,15.35
2018-04-20T03:59:16.057Z,15.11
2018-04-20T04:00:16.053Z,15.81
2018-04-20T04:01:16.055Z,15.54
2018-04-20T04:02:16.077Z,15.26
2018-04-20T04:03:16.063Z,15.02
2018-04-20T04:04:16.064Z,15.57
2018-04-20T04:05:16.049Z,15.59
2018-04-20T04:06:16.059Z,15.78
2018-04-20T04:07:16.062Z,15.76
2018-04-20T04:08:24.821Z,15.64
2018-04-20T04:10:09.548Z,15.03
2018-04-20T04:11:09.476Z,14.99
2018-04-20T04:12:09.555Z,15.23
2018-04-20T04:13:09.526Z,15.08
2018-04-20T04:14:09.553Z,14.94
2018-04-20T04:15:09.493Z,14.60
2018-04-20T04:16:09.767Z,14.68
2018-04-20T04:17:09.499Z,14.61
2018-04-20T04:18:09.462Z,15.06
2018-04-20T04:19:09.515Z,15.81
2018-04-20T04:20:09.492Z,15.79
2018-04-20T04:21:09.458Z,15.52
2018-04-20T04:22:09.457Z,15.17
2018-04-20T04:23:09.459Z,15.20
2018-04-20T04:24:09.454Z,15.24
2018-04-20T04:25:09.458Z,15.36
2018-04-20T04:26:09.461Z,15.74
2018-04-20T04:27:09.471Z,15.60
2018-04-20T04:28:09.482Z,15.63
2018-04-20T04:29:09.499Z,15.52
2018-04-20T04:30:09.531Z,15.70
2018-04-20T04:31:09.732Z,15.68
2018-04-20T04:32:09.470Z,15.63
2018-04-20T04:33:09.525Z,15.35
2018-04-20T04:34:09.532Z,15.54
2018-04-20T04:35:09.511Z,15.72
2018-04-20T04:36:09.471Z,16.26
2018-04-20T04:37:09.724Z,16.37
2018-04-20T04:38:09.460Z,15.36
2018-04-20T04:39:09.453Z,15.28
2018-04-20T04:40:09.507Z,14.94
2018-04-20T04:41:09.532Z,15.12
2018-04-20T04:42:09.507Z,15.03
2018-04-20T04:43:09.831Z,15.21
2018-04-20T04:44:09.504Z,15.72
2018-04-20T04:45:09.495Z,16.27
2018-04-20T04:46:09.486Z,16.30
2018-04-20T04:47:09.459Z,16.62
2018-04-20T04:48:09.505Z,16.56
2018-04-20T04:49:09.463Z,16.58
2018-04-20T04:50:09.507Z,16.67
2018-04-20T04:51:09.478Z,16.67
2018-04-20T04:52:09.492Z,16.50
2018-04-20T04:53:09.452Z,16.37
2018-04-20T04:54:09.498Z,16.35
2018-04-20T04:55:09.451Z,16.60
2018-04-20T04:56:09.467Z,16.11
2018-04-20T04:57:09.471Z,16.18
2018-04-20T04:58:09.489Z,16.11
2018-04-20T04:59:09.803Z,15.94
2018-04-20T05:00:09.598Z,15.82
2018-04-20T05:01:09.497Z,15.67
2018-04-20T05:02:09.510Z,15.70
2018-04-20T05:03:09.487Z,15.78
2018-04-20T05:04:09.455Z,16.07
2018-04-20T05:05:09.633Z,15.82
2018-04-20T05:06:09.482Z,15.78
2018-04-20T05:07:09.506Z,15.99
2018-04-20T05:08:09.514Z,16.06
2018-04-20T05:09:09.520Z,16.15
2018-04-20T05:10:09.471Z,15.97
2018-04-20T05:11:09.522Z,16.00
2018-04-20T05:12:09.495Z,15.51
2018-04-20T05:13:09.495Z,14.91
2018-04-20T05:14:09.478Z,14.87
2018-04-20T05:15:09.533Z,15.26
2018-04-20T05:16:09.493Z,15.27
2018-04-20T05:17:09.533Z,15.64
2018-04-20T05:18:09.513Z,15.68
2018-04-20T05:19:09.552Z,16.52
2018-04-20T05:20:09.553Z,16.89
2018-04-20T05:21:09.620Z,17.64
2018-04-20T05:22:09.566Z,17.84
2018-04-20T05:23:09.545Z,18.09
2018-04-20T05:24:09.561Z,18.43
2018-04-20T05:25:09.653Z,18.61
2018-04-20T05:26:09.568Z,18.87
2018-04-20T05:27:09.638Z,18.73
2018-04-20T05:28:09.576Z,18.86
2018-04-20T05:29:09.585Z,19.06
2018-04-20T05:30:09.597Z,19.31
2018-04-20T05:31:09.599Z,19.38
2018-04-20T05:32:09.608Z,19.50
2018-04-20T05:33:18.309Z,19.63
2018-04-20T05:35:04.042Z,18.62
2018-04-20T05:36:04.048Z,19.11
2018-04-20T05:37:04.055Z,19.38
2018-04-20T05:38:04.065Z,19.75
2018-04-20T05:39:04.085Z,19.72
2018-04-20T05:40:04.082Z,19.70
2018-04-20T05:41:04.094Z,19.08
2018-04-20T05:42:04.116Z,18.91
2018-04-20T05:43:04.225Z,18.76
2018-04-20T05:44:04.377Z,18.58
2018-04-20T05:45:13.590Z,18.62
2018-04-20T05:46:57.612Z,19.31
2018-04-20T05:47:57.620Z,19.75
2018-04-20T05:48:57.634Z,20.41
2018-04-20T05:49:57.650Z,20.89
2018-04-20T05:50:57.655Z,21.11
2018-04-20T05:51:57.665Z,21.27
2018-04-20T05:52:57.744Z,21.48
2018-04-20T05:53:57.698Z,21.59
2018-04-20T05:54:57.734Z,21.72
2018-04-20T05:55:57.788Z,21.60
2018-04-20T05:56:57.936Z,21.67
2018-04-20T05:57:57.779Z,21.69
2018-04-20T05:58:57.796Z,22.09
2018-04-20T05:59:57.840Z,21.94
2018-04-20T06:00:57.814Z,21.91
2018-04-20T06:01:57.828Z,22.06
2018-04-20T06:02:57.846Z,21.97
2018-04-20T06:03:57.865Z,21.39
2018-04-20T06:04:57.849Z,21.35
2018-04-20T06:05:57.886Z,20.58
2018-04-20T06:06:57.895Z,21.01
2018-04-20T06:07:57.926Z,21.60
2018-04-20T06:08:57.923Z,21.74
2018-04-20T06:09:57.932Z,20.96
2018-04-20T06:10:57.943Z,20.91
2018-04-20T06:11:57.991Z,21.24
2018-04-20T06:12:57.976Z,21.67
2018-04-20T06:13:58.001Z,21.30
2018-04-20T06:14:58.069Z,21.05
2018-04-20T06:15:58.023Z,20.38
2018-04-20T06:16:58.035Z,19.60
2018-04-20T06:17:58.048Z,19.35
2018-04-20T06:18:58.041Z,18.95
2018-04-20T06:19:58.051Z,18.42
2018-04-20T06:20:58.055Z,17.51
2018-04-20T06:21:58.075Z,17.63
2018-04-20T06:22:58.077Z,18.02
2018-04-20T06:23:58.121Z,17.78
2018-04-20T06:24:58.091Z,17.29
2018-04-20T06:25:58.101Z,17.23
2018-04-20T06:26:58.102Z,17.20
2018-04-20T06:27:58.145Z,17.18
2018-04-20T06:28:58.125Z,16.92
2018-04-20T06:29:58.148Z,17.07
2018-04-20T06:30:58.133Z,16.92
2018-04-20T06:31:58.136Z,17.46
2018-04-20T06:32:58.149Z,17.64
2018-04-20T06:33:58.160Z,17.66
2018-04-20T06:35:06.850Z,17.81
2018-04-20T06:36:51.603Z,17.92
2018-04-20T06:37:51.574Z,18.28
2018-04-20T06:38:51.583Z,18.34
2018-04-20T06:39:51.623Z,18.49
2018-04-20T06:40:51.625Z,18.59
2018-04-20T06:41:51.678Z,18.55
2018-04-20T06:42:51.603Z,18.55
2018-04-20T06:43:51.602Z,18.47
2018-04-20T06:44:51.610Z,18.50
2018-04-20T06:45:51.624Z,18.46
2018-04-20T06:46:51.607Z,18.34
2018-04-20T06:47:51.617Z,18.33
2018-04-20T06:48:51.654Z,18.37
2018-04-20T06:49:51.620Z,18.49
2018-04-20T06:50:51.654Z,18.39
2018-04-20T06:51:51.633Z,18.21
2018-04-20T06:52:51.637Z,18.28
2018-04-20T06:53:51.653Z,18.27
2018-04-20T06:54:51.638Z,18.24
2018-04-20T06:55:51.647Z,18.37
2018-04-20T06:56:51.670Z,18.46
2018-04-20T06:57:51.654Z,18.36
2018-04-20T06:58:51.680Z,18.43
2018-04-20T06:59:51.684Z,18.37
2018-04-20T07:00:51.673Z,18.37
2018-04-20T07:01:51.675Z,18.34
2018-04-20T07:02:51.680Z,18.43
2018-04-20T07:03:51.708Z,18.49
2018-04-20T07:04:51.699Z,18.52
2018-04-20T07:05:51.706Z,18.49
2018-04-20T07:06:51.700Z,18.49
2018-04-20T07:07:51.723Z,18.44
2018-04-20T07:08:51.693Z,18.39
2018-04-20T07:09:51.725Z,18.58
2018-04-20T07:10:51.701Z,18.52
2018-04-20T07:11:51.702Z,18.40
2018-04-20T07:12:51.713Z,18.57
2018-04-20T07:13:51.725Z,18.47
2018-04-20T07:14:51.710Z,18.49
2018-04-20T07:15:51.726Z,18.52
2018-04-20T07:16:51.718Z,18.46
2018-04-20T07:17:51.720Z,18.46
2018-04-20T07:18:51.732Z,18.40
2018-04-20T07:19:51.732Z,18.36
2018-04-20T07:20:51.766Z,18.50
2018-04-20T07:21:51.736Z,18.57
2018-04-20T07:22:51.732Z,18.50
2018-04-20T07:23:51.736Z,18.57
2018-04-20T07:24:51.748Z,18.64
2018-04-20T07:25:51.744Z,18.54
2018-04-20T07:26:51.751Z,18.46
2018-04-20T07:27:51.777Z,18.47
2018-04-20T07:28:51.761Z,18.57
2018-04-20T07:29:51.773Z,18.57
2018-04-20T07:30:51.765Z,18.57
2018-04-20T07:31:51.778Z,18.62
2018-04-20T07:32:51.772Z,18.68
2018-04-20T07:33:51.780Z,18.58
2018-04-20T07:34:51.775Z,18.58
2018-04-20T07:35:51.776Z,18.61
2018-04-20T07:36:51.782Z,18.64
2018-04-20T07:37:51.784Z,18.67
2018-04-20T07:38:51.788Z,18.76
2018-04-20T07:39:51.788Z,18.67
2018-04-20T07:40:51.803Z,18.50
2018-04-20T07:41:51.799Z,18.49
2018-04-20T07:42:51.799Z,18.49
2018-04-20T07:43:51.803Z,18.57
2018-04-20T07:44:51.821Z,18.52
2018-04-20T07:45:51.858Z,18.50
2018-04-20T07:46:51.815Z,18.59
2018-04-20T07:47:51.817Z,18.57
2018-04-20T07:48:51.831Z,18.55
2018-04-20T07:49:51.837Z,18.57
2018-04-20T07:50:51.827Z,18.49
2018-04-20T07:51:51.839Z,18.65
2018-04-20T07:52:51.835Z,18.76
2018-04-20T07:53:51.840Z,18.64
2018-04-20T07:54:51.840Z,18.70
2018-04-20T07:55:51.844Z,18.65
2018-04-20T07:56:51.852Z,18.62
2018-04-20T07:57:51.857Z,18.61
2018-04-20T07:58:51.867Z,18.59
2018-04-20T07:59:51.929Z,18.77
2018-04-20T08:00:51.879Z,18.82
2018-04-20T08:01:51.883Z,18.77
2018-04-20T08:02:51.912Z,18.73
2018-04-20T08:03:51.920Z,18.79
2018-04-20T08:04:51.906Z,18.90
2018-04-20T08:05:51.939Z,19.02
2018-04-20T08:06:51.919Z,18.94
2018-04-20T08:07:51.924Z,19.10
2018-04-20T08:08:52.136Z,18.97
2018-04-20T08:09:51.922Z,18.84
2018-04-20T08:10:51.954Z,18.84
2018-04-20T08:11:51.948Z,18.77
2018-04-20T08:12:51.967Z,18.86
2018-04-20T08:13:52.004Z,18.94
2018-04-20T08:14:51.917Z,19.01
2018-04-20T08:15:51.977Z,19.05
2018-04-20T08:16:51.987Z,19.05
2018-04-20T08:17:51.954Z,19.02
2018-04-20T08:18:51.942Z,19.06
2018-04-20T08:19:51.961Z,19.10
2018-04-20T08:20:51.945Z,19.02
2018-04-20T08:21:51.952Z,19.05
2018-04-20T08:22:51.968Z,19.06
2018-04-20T08:23:51.959Z,19.24
2018-04-20T08:24:51.956Z,19.18
2018-04-20T08:25:51.962Z,19.24
2018-04-20T08:28:14.163Z,19.32
2018-04-20T08:29:14.100Z,19.08
2018-04-20T08:30:14.299Z,19.20
2018-04-20T08:31:14.106Z,19.17
2018-04-20T08:32:14.107Z,19.20
2018-04-20T08:33:14.065Z,19.13
2018-04-20T08:34:14.246Z,19.24
2018-04-20T08:35:14.086Z,19.32
2018-04-20T08:36:14.132Z,19.33
2018-04-20T08:37:14.156Z,19.35
2018-04-20T08:38:14.147Z,19.38
2018-04-20T08:39:14.375Z,19.23
2018-04-20T08:40:14.205Z,19.29
2018-04-20T08:41:14.099Z,19.25
2018-04-20T08:42:14.097Z,19.29
2018-04-20T08:43:14.105Z,19.42
2018-04-20T08:44:14.117Z,19.46
2018-04-20T08:45:14.117Z,19.38
2018-04-20T08:46:14.130Z,19.54
2018-04-20T08:47:14.127Z,19.69
2018-04-20T08:48:14.128Z,19.69
2018-04-20T08:49:14.135Z,19.66
2018-04-20T08:50:14.159Z,19.84
2018-04-20T08:51:14.147Z,19.79
2018-04-20T08:52:14.145Z,19.73
2018-04-20T08:53:14.191Z,19.76
2018-04-20T08:54:14.155Z,19.91
2018-04-20T08:55:14.187Z,19.80
2018-04-20T08:56:14.198Z,19.86
2018-04-20T08:57:14.163Z,19.69
2018-04-20T08:58:14.166Z,19.69
2018-04-20T08:59:14.195Z,19.73
2018-04-20T09:00:14.196Z,19.84
2018-04-20T09:01:14.187Z,19.87
2018-04-20T09:02:14.246Z,19.90
2018-04-20T09:03:14.196Z,19.94
2018-04-20T09:04:14.209Z,19.84
2018-04-20T09:05:14.260Z,19.79
2018-04-20T09:06:14.195Z,19.94
2018-04-20T09:07:14.212Z,19.93
2018-04-20T09:08:14.236Z,20.03
2018-04-20T09:09:14.210Z,20.02
2018-04-20T09:10:14.218Z,19.94
2018-04-20T09:11:14.237Z,19.91
2018-04-20T09:12:14.221Z,20.05
2018-04-20T09:13:14.220Z,20.10
2018-04-20T09:14:14.229Z,20.05
2018-04-20T09:15:14.240Z,20.02
2018-04-20T09:16:14.242Z,19.93
2018-04-20T09:17:14.253Z,19.90
2018-04-20T09:18:14.251Z,20.05
2018-04-20T09:19:14.257Z,20.18
2018-04-20T09:20:14.250Z,20.21
2018-04-20T09:21:14.268Z,20.50
2018-04-20T09:22:14.260Z,20.51
2018-04-20T09:23:14.264Z,20.53
2018-04-20T09:24:14.272Z,20.51
2018-04-20T09:25:14.283Z,20.41
2018-04-20T09:26:14.288Z,20.23
2018-04-20T09:27:14.292Z,20.30
2018-04-20T09:28:14.310Z,20.38
2018-04-20T09:29:14.304Z,20.53
2018-04-20T09:30:14.294Z,20.58
2018-04-20T09:31:14.301Z,20.59
2018-04-20T09:32:14.307Z,20.38
2018-04-20T09:33:14.316Z,20.39
2018-04-20T09:34:14.341Z,20.47
2018-04-20T09:35:14.334Z,20.56
2018-04-20T09:36:14.359Z,20.58
2018-04-20T09:37:14.355Z,20.84
2018-04-20T09:38:14.362Z,20.76
2018-04-20T09:39:14.665Z,20.76
2018-04-20T09:40:14.379Z,20.76
2018-04-20T09:41:14.379Z,20.43
2018-04-20T09:42:14.380Z,20.38
2018-04-20T09:43:14.402Z,20.49
2018-04-20T09:44:14.424Z,20.72
2018-04-20T09:45:14.397Z,20.56
2018-04-20T09:46:14.444Z,20.47
2018-04-20T09:47:14.377Z,20.51
2018-04-20T09:48:14.419Z,20.56
2018-04-20T09:49:14.391Z,20.56
2018-04-20T09:50:14.409Z,20.74
2018-04-20T09:51:14.393Z,20.77
2018-04-20T09:52:14.395Z,20.66
2018-04-20T09:53:14.409Z,20.83
2018-04-20T09:54:14.432Z,20.89
2018-04-20T09:55:14.417Z,20.87
2018-04-20T09:56:14.440Z,21.02
2018-04-20T09:57:14.439Z,20.99
2018-04-20T09:58:14.485Z,20.80
2018-04-20T09:59:14.439Z,20.76
2018-04-20T10:00:14.440Z,20.84
2018-04-20T10:01:14.444Z,21.13
2018-04-20T10:02:14.447Z,21.19
2018-04-20T10:03:14.458Z,21.27
2018-04-20T10:04:14.457Z,21.21
2018-04-20T10:05:14.458Z,21.26
2018-04-20T10:06:14.501Z,21.21
2018-04-20T10:07:14.471Z,21.23
2018-04-20T10:08:14.546Z,21.27
2018-04-20T10:09:14.549Z,21.34
2018-04-20T10:10:14.500Z,21.27
2018-04-20T10:11:14.520Z,21.29
2018-04-20T10:12:14.522Z,21.41
2018-04-20T10:13:14.502Z,21.44
2018-04-20T10:14:14.538Z,21.29
2018-04-20T10:15:14.520Z,21.26
2018-04-20T10:16:14.532Z,21.17
2018-04-20T10:17:14.578Z,21.13
2018-04-20T10:18:14.539Z,21.20
2018-04-20T10:19:14.609Z,21.27
2018-04-20T10:20:14.552Z,21.51
2018-04-20T10:21:14.542Z,21.45
2018-04-20T10:22:14.578Z,21.42
2018-04-20T10:23:14.588Z,21.63
2018-04-20T10:24:14.557Z,21.61
2018-04-20T10:25:14.573Z,21.69
2018-04-20T10:26:14.574Z,21.71
2018-04-20T10:27:14.617Z,21.91
2018-04-20T10:28:14.671Z,21.83
2018-04-20T10:29:14.607Z,21.72
2018-04-20T10:30:14.641Z,21.88
2018-04-20T10:31:14.634Z,21.91
2018-04-20T10:32:23.256Z,21.94
2018-04-20T10:34:08.071Z,21.82
2018-04-20T10:35:08.029Z,21.97
2018-04-20T10:36:08.034Z,21.99
2018-04-20T10:37:10.546Z,21.94
2018-04-20T10:38:08.072Z,22.02
2018-04-20T10:39:08.052Z,21.98
2018-04-20T10:40:08.066Z,22.02
2018-04-20T10:41:08.121Z,21.79
2018-04-20T10:42:08.077Z,21.99
2018-04-20T10:43:08.083Z,22.09
2018-04-20T10:44:08.110Z,22.17
2018-04-20T10:45:08.093Z,22.29
2018-04-20T10:46:08.374Z,22.01
2018-04-20T10:47:10.097Z,21.75
2018-04-20T10:48:08.095Z,21.57
2018-04-20T10:49:08.145Z,21.54
2018-04-20T10:50:08.113Z,21.64
2018-04-20T10:51:08.133Z,21.56
2018-04-20T10:52:08.137Z,21.76
2018-04-20T10:53:08.132Z,22.04
2018-04-20T10:54:08.163Z,21.95
2018-04-20T10:55:08.158Z,21.83
2018-04-20T10:56:08.154Z,21.78
2018-04-20T10:57:08.148Z,22.09
2018-04-20T10:58:08.152Z,22.14
2018-04-20T10:59:08.146Z,22.12
2018-04-20T11:00:08.155Z,22.14
2018-04-20T11:01:16.876Z,22.07
2018-04-20T11:03:01.606Z,22.06
2018-04-20T11:04:01.607Z,22.29
2018-04-20T11:05:01.585Z,22.47
2018-04-20T11:06:01.625Z,22.37
2018-04-20T11:07:01.593Z,22.57
2018-04-20T11:08:01.602Z,22.78
2018-04-20T11:09:01.633Z,22.80
2018-04-20T11:10:01.661Z,22.82
2018-04-20T11:11:01.626Z,22.56
2018-04-20T11:12:01.655Z,22.78
2018-04-20T11:13:01.626Z,22.31
2018-04-20T11:14:01.639Z,22.49
2018-04-20T11:15:01.658Z,22.65
2018-04-20T11:16:01.647Z,22.60
2018-04-20T11:17:01.697Z,22.89
2018-04-20T11:18:01.962Z,23.12
2018-04-20T11:19:01.709Z,23.14
2018-04-20T11:21:22.823Z,23.01
2018-04-20T11:22:22.769Z,22.80
2018-04-20T11:23:22.743Z,22.80
2018-04-20T11:24:22.783Z,22.93
2018-04-20T11:25:22.753Z,23.02
2018-04-20T11:26:22.763Z,22.94
2018-04-20T11:27:22.764Z,23.08
2018-04-20T11:28:22.772Z,23.05
2018-04-20T11:29:22.786Z,22.89
2018-04-20T11:30:22.779Z,22.72
2018-04-20T11:31:30.064Z,22.89
2018-04-20T11:33:16.284Z,22.78
2018-04-20T11:34:16.239Z,22.75
2018-04-20T11:35:16.312Z,22.65
2018-04-20T11:36:16.476Z,22.68
2018-04-20T11:37:16.305Z,22.77
2018-04-20T11:38:16.267Z,22.44
2018-04-20T11:39:16.355Z,22.44
2018-04-20T11:40:16.304Z,22.77
2018-04-20T11:41:16.315Z,23.14
2018-04-20T11:42:16.298Z,23.38
2018-04-20T11:43:16.367Z,23.19
2018-04-20T11:44:16.338Z,23.14
2018-04-20T11:45:16.386Z,23.07
2018-04-20T11:46:16.352Z,23.05
2018-04-20T11:47:16.400Z,23.15
2018-04-20T11:48:16.364Z,23.19
2018-04-20T11:49:16.367Z,23.32
2018-04-20T11:50:16.329Z,23.38
2018-04-20T11:51:16.397Z,23.04
2018-04-20T11:52:16.353Z,23.38
2018-04-20T11:53:16.368Z,23.29
2018-04-20T11:54:16.357Z,23.19
2018-04-20T11:55:16.420Z,23.11
2018-04-20T11:56:16.409Z,23.17
2018-04-20T11:57:16.438Z,23.08
2018-04-20T11:58:16.384Z,23.11
2018-04-20T11:59:16.443Z,23.12
2018-04-20T12:00:16.424Z,23.29
2018-04-20T12:01:16.407Z,23.53
2018-04-20T12:02:16.465Z,23.50
2018-04-20T12:03:16.419Z,23.35
2018-04-20T12:04:16.429Z,23.52
2018-04-20T12:05:16.503Z,23.43
2018-04-20T12:06:16.521Z,23.31
2018-04-20T12:07:16.504Z,23.50
2018-04-20T12:08:16.578Z,23.58
2018-04-20T12:09:16.460Z,23.65
2018-04-20T12:10:16.467Z,23.80
2018-04-20T12:11:16.605Z,23.47
2018-04-20T12:12:16.488Z,23.39
2018-04-20T12:13:16.662Z,23.60
2018-04-20T12:14:16.495Z,23.83
2018-04-20T12:15:16.678Z,23.90
2018-04-20T12:16:16.574Z,23.58
2018-04-20T12:17:16.767Z,23.71
2018-04-20T12:18:16.525Z,23.82
2018-04-20T12:19:18.320Z,24.07
2018-04-20T12:20:16.582Z,23.94
2018-04-20T12:21:16.671Z,23.89
2018-04-20T12:22:16.548Z,23.90
2018-04-20T12:23:16.624Z,23.87
2018-04-20T12:24:16.573Z,24.02
2018-04-20T12:25:16.806Z,23.94
2018-04-20T12:26:16.583Z,24.02
2018-04-20T12:27:16.719Z,24.10
2018-04-20T12:28:16.627Z,24.35
2018-04-20T12:29:16.696Z,24.16
2018-04-20T12:30:16.607Z,24.39
2018-04-20T12:31:16.643Z,24.32
2018-04-20T12:32:16.630Z,24.35
2018-04-20T12:33:16.711Z,24.16
2018-04-20T12:34:16.638Z,23.83
2018-04-20T12:35:16.686Z,23.65
2018-04-20T12:36:16.679Z,23.86
2018-04-20T12:37:17.299Z,23.86
2018-04-20T12:38:16.721Z,23.82
2018-04-20T12:39:18.335Z,24.07
2018-04-20T12:40:16.700Z,24.27
2018-04-20T12:41:16.893Z,24.08
2018-04-20T12:42:16.744Z,24.38
2018-04-20T12:43:16.759Z,24.61
2018-04-20T12:44:18.303Z,24.53
2018-04-20T12:45:16.768Z,24.34
2018-04-20T12:46:16.747Z,24.26
2018-04-20T12:47:16.797Z,24.24
2018-04-20T12:48:16.737Z,24.42
2018-04-20T12:49:17.005Z,24.57
2018-04-20T12:50:16.786Z,24.57
2018-04-20T12:51:16.837Z,24.42
2018-04-20T12:52:16.799Z,24.22
2018-04-20T12:53:16.821Z,24.14
2018-04-20T12:54:16.817Z,24.24
2018-04-20T12:55:17.019Z,24.24
2018-04-20T12:56:16.805Z,24.34
2018-04-20T12:57:16.878Z,24.34
2018-04-20T12:58:16.962Z,24.49
2018-04-20T12:59:16.861Z,24.64
2018-04-20T13:00:16.851Z,24.42
2018-04-20T13:01:16.889Z,24.41
2018-04-20T13:02:16.877Z,24.22
2018-04-20T13:03:16.992Z,24.27
2018-04-20T13:04:16.919Z,24.53
2018-04-20T13:05:16.937Z,24.27
2018-04-20T13:06:16.915Z,24.20
2018-04-20T13:07:16.894Z,24.27
2018-04-20T13:08:18.871Z,24.57
2018-04-20T13:09:16.952Z,24.56
2018-04-20T13:10:17.051Z,24.26
2018-04-20T13:11:16.944Z,24.34
2018-04-20T13:12:16.941Z,24.27
2018-04-20T13:13:16.945Z,24.42
2018-04-20T13:14:17.136Z,24.45
2018-04-20T13:15:16.979Z,24.39
2018-04-20T13:16:16.981Z,24.52
2018-04-20T13:17:16.975Z,24.57
2018-04-20T13:18:17.083Z,24.56
2018-04-20T13:19:16.991Z,24.23
2018-04-20T13:20:17.006Z,24.12
2018-04-20T13:21:17.103Z,24.10
2018-04-20T13:22:17.037Z,24.87
2018-04-20T13:23:17.142Z,24.80
2018-04-20T13:24:17.037Z,24.80
2018-04-20T13:25:18.793Z,24.79
2018-04-20T13:26:17.033Z,24.64
2018-04-20T13:27:17.041Z,25.00
2018-04-20T13:28:17.087Z,25.09
2018-04-20T13:29:17.119Z,24.87
2018-04-20T13:30:17.089Z,24.94
2018-04-20T13:31:17.091Z,24.82
2018-04-20T13:32:17.072Z,24.95
2018-04-20T13:33:17.080Z,24.94
2018-04-20T13:34:17.104Z,25.00
2018-04-20T13:35:26.775Z,25.27
2018-04-20T13:37:10.830Z,25.13
2018-04-20T13:40:04.007Z,24.82
2018-04-20T13:41:13.541Z,24.85
2018-04-20T13:42:57.496Z,24.69
2018-04-20T13:43:57.436Z,24.68
2018-04-20T13:44:57.431Z,24.69
2018-04-20T13:45:57.524Z,24.75
2018-04-20T13:46:57.463Z,24.82
2018-04-20T13:47:57.523Z,25.25
2018-04-20T13:48:57.589Z,25.27
2018-04-20T13:49:57.562Z,25.31
2018-04-20T13:50:57.548Z,25.35
2018-04-20T13:51:57.539Z,25.02
2018-04-20T13:52:57.555Z,24.97
2018-04-20T13:53:57.558Z,25.22
2018-04-20T13:54:57.548Z,25.37
2018-04-20T13:55:57.517Z,25.22
2018-04-20T13:56:57.568Z,25.12
2018-04-20T13:57:57.594Z,25.20
2018-04-20T13:58:57.574Z,25.07
2018-04-20T14:00:06.231Z,25.15
2018-04-20T14:01:51.053Z,24.87
2018-04-20T14:02:50.985Z,24.57
2018-04-20T14:03:51.006Z,24.53
2018-04-20T14:04:51.074Z,24.82
2018-04-20T14:05:50.998Z,24.80
2018-04-20T14:06:51.009Z,24.88
2018-04-20T14:07:51.042Z,24.85
2018-04-20T14:08:51.104Z,24.77
2018-04-20T14:09:51.051Z,24.94
2018-04-20T14:10:51.076Z,25.42
2018-04-20T14:11:51.048Z,25.30
2018-04-20T14:12:51.114Z,25.38
2018-04-20T14:13:51.135Z,25.50
2018-04-20T14:14:51.112Z,25.38
2018-04-20T14:15:51.134Z,25.06
2018-04-20T14:16:51.258Z,24.94
2018-04-20T14:17:51.126Z,25.02
2018-04-20T14:18:51.125Z,25.06
2018-04-20T14:19:51.170Z,25.27
2018-04-20T14:20:51.239Z,25.59
2018-04-20T14:21:51.193Z,25.69
2018-04-20T14:22:51.137Z,25.90
2018-04-20T14:23:51.144Z,25.91
2018-04-20T14:24:51.153Z,26.01
2018-04-20T14:25:51.190Z,26.02
2018-04-20T14:26:51.249Z,25.74
2018-04-20T14:27:51.241Z,25.46
2018-04-20T14:28:53.014Z,25.57
2018-04-20T14:29:51.320Z,25.53
2018-04-20T14:30:52.217Z,25.46
2018-04-20T14:31:51.296Z,25.64
2018-04-20T14:32:51.277Z,25.69
2018-04-20T14:33:51.225Z,25.75
2018-04-20T14:34:51.454Z,25.59
2018-04-20T14:35:51.238Z,25.46
2018-04-20T14:36:51.245Z,25.22
2018-04-20T14:37:51.286Z,25.35
2018-04-20T14:38:51.265Z,25.54
2018-04-20T14:39:51.325Z,25.61
2018-04-20T14:41:00.634Z,25.72
2018-04-20T14:42:45.918Z,25.62
2018-04-20T14:43:45.791Z,25.56
2018-04-20T14:44:45.760Z,25.61
2018-04-20T14:45:45.759Z,25.57
2018-04-20T14:46:45.764Z,25.47
2018-04-20T14:47:45.750Z,25.71
2018-04-20T14:48:45.744Z,25.86
2018-04-20T14:49:45.787Z,25.74
2018-04-20T14:50:45.971Z,25.77
2018-04-20T14:51:45.774Z,25.84
2018-04-20T14:52:45.819Z,25.72
2018-04-20T14:53:45.799Z,25.86
2018-04-20T14:54:45.790Z,25.83
2018-04-20T14:55:45.838Z,25.50
2018-04-20T14:56:45.819Z,25.68
2018-04-20T14:57:45.835Z,25.99
2018-04-20T14:58:45.873Z,25.79
2018-04-20T14:59:45.841Z,25.82
2018-04-20T15:00:45.889Z,25.59
2018-04-20T15:01:48.758Z,25.47
2018-04-20T15:02:45.892Z,25.67
2018-04-20T15:03:45.875Z,25.97
2018-04-20T15:04:45.967Z,26.02
2018-04-20T15:05:45.894Z,26.08
2018-04-20T15:06:45.911Z,25.69
2018-04-20T15:07:45.924Z,25.67
2018-04-20T15:08:45.913Z,25.65
2018-04-20T15:09:46.044Z,25.75
2018-04-20T15:10:45.925Z,26.02
2018-04-20T15:11:45.965Z,26.08
2018-04-20T15:12:45.939Z,26.20
2018-04-20T15:13:45.949Z,26.02
2018-04-20T15:14:45.953Z,26.02
2018-04-20T15:15:45.979Z,26.24
2018-04-20T15:18:07.061Z,26.18
2018-04-20T15:19:07.286Z,26.18
2018-04-20T15:20:07.058Z,26.17
2018-04-20T15:21:07.098Z,26.08
2018-04-20T15:22:07.054Z,26.02
2018-04-20T15:23:07.113Z,26.24
2018-04-20T15:24:07.127Z,25.98
2018-04-20T15:25:07.115Z,25.83
2018-04-20T15:26:09.060Z,25.56
2018-04-20T15:27:07.120Z,25.47
2018-04-20T15:28:07.119Z,25.44
2018-04-20T15:29:07.142Z,25.75
2018-04-20T15:30:07.133Z,25.94
2018-04-20T15:31:07.138Z,25.83
2018-04-20T15:32:07.175Z,25.54
2018-04-20T15:33:07.181Z,25.54
2018-04-20T15:34:07.185Z,25.57
2018-04-20T15:35:07.215Z,25.65
2018-04-20T15:36:07.307Z,26.01
2018-04-20T15:37:07.189Z,26.15
2018-04-20T15:38:07.173Z,26.12
2018-04-20T15:39:07.207Z,26.27
2018-04-20T15:40:07.225Z,26.15
2018-04-20T15:41:07.210Z,26.01
2018-04-20T15:42:07.208Z,25.94
2018-04-20T15:43:07.220Z,26.05
2018-04-20T15:44:07.287Z,26.05
2018-04-20T15:45:07.246Z,25.87
2018-04-20T15:46:09.081Z,25.89
2018-04-20T15:47:07.296Z,26.02
2018-04-20T15:48:07.322Z,25.98
2018-04-20T15:49:07.272Z,26.01
2018-04-20T15:50:07.306Z,25.87
2018-04-20T15:51:07.288Z,25.91
2018-04-20T15:52:07.305Z,25.87
2018-04-20T15:53:07.303Z,25.93
2018-04-20T15:54:07.309Z,26.06
2018-04-20T15:55:07.392Z,26.15
2018-04-20T15:56:07.330Z,26.36
2018-04-20T15:57:07.336Z,26.54
2018-04-20T15:58:07.365Z,26.39
2018-04-20T15:59:09.091Z,26.35
2018-04-20T16:00:07.424Z,26.37
2018-04-20T16:01:16.037Z,26.59
2018-04-20T16:03:10.848Z,26.65
2018-04-20T16:04:09.881Z,26.57
2018-04-20T16:06:03.343Z,26.58
2018-04-20T16:06:54.285Z,26.35
2018-04-20T16:07:54.268Z,26.21
2018-04-20T16:08:54.351Z,26.04
2018-04-20T16:09:54.303Z,26.11
2018-04-20T16:10:54.347Z,26.04
2018-04-20T16:11:54.338Z,26.18
2018-04-20T16:12:54.343Z,26.24
2018-04-20T16:13:54.359Z,26.02
2018-04-20T16:14:54.328Z,25.75
2018-04-20T16:15:54.365Z,26.04
2018-04-20T16:16:54.389Z,26.21
2018-04-20T16:17:54.431Z,26.02
2018-04-20T16:18:54.369Z,25.87
2018-04-20T16:19:54.387Z,25.84
2018-04-20T16:20:54.433Z,25.86
2018-04-20T16:21:54.396Z,25.84
2018-04-20T16:22:54.427Z,25.75
2018-04-20T16:23:54.410Z,25.77
2018-04-20T16:24:54.522Z,25.80
2018-04-20T16:25:54.425Z,25.86
2018-04-20T16:26:54.429Z,25.86
2018-04-20T16:27:54.437Z,25.77
2018-04-20T16:28:54.526Z,25.94
2018-04-20T16:29:54.452Z,25.91
2018-04-20T16:30:54.568Z,25.89
2018-04-20T16:31:54.491Z,25.71